Hymera, Indiana
Current Conditions -  °F | °C
As of 11:53 PM on Tuesday 21 Oct 2014 (Local Time) from KHUF Reporting Station
Clear Clear  
Wind Chill: 41°   Ceiling: Unl
Heat Index: 45°   Visibility: 10mi
Dew Point: 40°   Wind: 7mph
Humidity: 82%   Direction: 10°N
Pressure: 30.22"   Gusts: NA
Location:  39.19°N, 87.3°W
Report Text: KHUF 220353Z 01006KT 10SM CLR 07/04 A3022 RMK AO2 SLP236 T00720044 $
Loading
Personal Weather Stations






























Interactive Weather Map
Tropical Storm Tracking
New forecast layout! Learn more

10-Day Weather Forecast

Advertisements
Track Severe Weather on mobile